| time (UTC) | temp F | wind direction | speed MPH | gust MPH | rain 1hr in | rain 24hr in | rain mn in | humidity % | barometer mb |
| 20260508231221 | 56 | 200 | 3.0 | 3.0 | 0.00 | 0.04 | 0.04 | 88 | 1008.4 |
| 20260508230718 | 57 | 204 | 5.0 | 6.0 | 0.00 | 0.04 | 0.04 | 88 | 1008.3 |
| 20260508230214 | 56 | 225 | 4.0 | 6.0 | 0.00 | 0.04 | 0.04 | 89 | 1008.3 |
| 20260508225712 | 56 | 185 | 5.0 | 6.0 | 0.00 | 0.04 | 0.04 | 89 | 1008.4 |
| 20260508225208 | 56 | 190 | 4.0 | 6.0 | 0.00 | 0.04 | 0.04 | 89 | 1008.6 |
| 20260508224706 | 56 | 156 | 3.0 | 5.0 | 0.00 | 0.04 | 0.04 | 89 | 1008.1 |
| 20260508224203 | 56 | 208 | 3.0 | 5.0 | 0.00 | 0.04 | 0.04 | 88 | 1008.3 |
| 20260508223701 | 56 | 213 | 3.0 | 6.0 | 0.00 | 0.04 | 0.04 | 88 | 1008.4 |
| 20260508223158 | 56 | 192 | 3.0 | 3.0 | 0.00 | 0.04 | 0.04 | 88 | 1008.3 |
| 20260508222655 | 56 | 186 | 3.0 | 3.0 | 0.00 | 0.04 | 0.04 | 88 | 1008.4 |
| 20260508222153 | 56 | 214 | 4.0 | 5.0 | 0.00 | 0.04 | 0.04 | 87 | 1008.5 |
| 20260508221649 | 56 | 202 | 4.0 | 5.0 | 0.00 | 0.04 | 0.04 | 87 | 1008.6 |
| 20260508221144 | 56 | 188 | 4.0 | 6.0 | 0.00 | 0.04 | 0.04 | 87 | 1008.6 |
| 20260508220641 | 56 | 201 | 5.0 | 5.0 | 0.00 | 0.04 | 0.04 | 85 | 1008.5 |
| 20260508220138 | 56 | 249 | 3.0 | 3.0 | 0.00 | 0.04 | 0.04 | 85 | 1008.5 |
| 20260508215634 | 56 | 205 | 5.0 | 8.0 | 0.00 | 0.04 | 0.04 | 84 | 1008.6 |
| 20260508215131 | 57 | 212 | 5.0 | 6.0 | 0.00 | 0.04 | 0.04 | 85 | 1008.6 |
| 20260508214628 | 57 | 221 | 3.0 | 5.0 | 0.00 | 0.04 | 0.04 | 85 | 1008.5 |
| 20260508214126 | 57 | 194 | 3.0 | 5.0 | 0.00 | 0.04 | 0.04 | 84 | 1008.5 |
| 20260508213622 | 56 | 214 | 5.0 | 6.0 | 0.00 | 0.04 | 0.04 | 84 | 1008.4 |
| 20260508213118 | 56 | 201 | 3.0 | 6.0 | 0.00 | 0.04 | 0.04 | 85 | 1008.4 |
| 20260508212615 | 56 | 261 | 4.0 | 6.0 | 0.00 | 0.04 | 0.04 | 86 | 1008.5 |
| 20260508212111 | 56 | 231 | 5.0 | 6.0 | 0.00 | 0.04 | 0.04 | 86 | 1008.7 |
| 20260508211606 | 56 | 176 | 1.0 | 1.0 | 0.00 | 0.04 | 0.04 | 86 | 1008.6 |
| 20260508211103 | 56 | 238 | 4.0 | 5.0 | 0.00 | 0.04 | 0.04 | 86 | 1008.8 |
| 20260508210600 | 56 | 189 | 5.0 | 5.0 | 0.00 | 0.04 | 0.04 | 85 | 1008.7 |
| 20260508210057 | 56 | 274 | 8.0 | 10.0 | 0.00 | 0.04 | 0.04 | 83 | 1009.1 |
| 20260508205554 | 56 | 204 | 6.0 | 7.0 | 0.07 | 0.04 | 0.04 | 84 | 1008.8 |
| 20260508205050 | 56 | 201 | 3.0 | 5.0 | 0.07 | 0.04 | 0.04 | 84 | 1008.9 |
| 20260508204547 | 56 | 190 | 3.0 | 3.0 | 0.00 | 0.03 | 0.03 | 83 | 1009.3 |
| 20260508204043 | 56 | 228 | 5.0 | 8.0 | 0.00 | 0.03 | 0.03 | 82 | 1009.0 |
| 20260508203539 | 57 | 254 | 2.0 | 2.0 | 0.00 | 0.03 | 0.03 | 82 | 1009.0 |
| 20260508203035 | 57 | 229 | 2.0 | 2.0 | 0.00 | 0.03 | 0.03 | 83 | 1009.1 |
| 20260508202532 | 57 | 183 | 4.0 | 5.0 | 0.05 | 0.03 | 0.03 | 83 | 1009.3 |
| 20260508202029 | 57 | 199 | 5.0 | 6.0 | 0.05 | 0.03 | 0.03 | 81 | 1009.0 |
| 20260508201526 | 58 | 177 | 1.0 | 1.0 | 0.00 | 0.02 | 0.02 | 81 | 1009.1 |
| 20260508201022 | 58 | 208 | 2.0 | 2.0 | 0.00 | 0.02 | 0.02 | 78 | 1009.4 |
| 20260508200520 | 59 | 184 | 3.0 | 3.0 | 0.00 | 0.02 | 0.02 | 76 | 1009.3 |
| 20260508200015 | 59 | 191 | 2.0 | 2.0 | 0.00 | 0.02 | 0.02 | 74 | 1009.2 |
| 20260508195512 | 59 | 240 | 2.0 | 2.0 | 0.00 | 0.02 | 0.02 | 72 | 1009.4 |
| 20260508195008 | 59 | 284 | 1.0 | 1.0 | 0.00 | 0.02 | 0.02 | 72 | 1009.2 |
| 20260508194506 | 59 | 191 | 1.0 | 2.0 | 0.00 | 0.02 | 0.02 | 74 | 1009.2 |
| 20260508194003 | 59 | 78 | 0.0 | 0.0 | 0.00 | 0.02 | 0.02 | 71 | 1009.2 |
| 20260508193459 | 60 | 102 | 1.0 | 1.0 | 0.00 | 0.02 | 0.02 | 71 | 1009.4 |
| 20260508192956 | 60 | 277 | 1.0 | 1.0 | 0.00 | 0.02 | 0.02 | 70 | 1009.5 |
| 20260508192452 | 60 | 53 | 0.0 | 1.0 | 0.00 | 0.02 | 0.02 | 69 | 1009.4 |
| 20260508191949 | 60 | 90 | 0.0 | 0.0 | 0.00 | 0.02 | 0.02 | 69 | 1009.7 |
| 20260508191447 | 60 | 190 | 1.0 | 2.0 | 0.00 | 0.02 | 0.02 | 71 | 1009.7 |
| 20260508190943 | 59 | 105 | 0.0 | 0.0 | 0.00 | 0.02 | 0.02 | 69 | 1009.6 |
| 20260508190441 | 59 | 334 | 1.0 | 2.0 | 0.00 | 0.02 | 0.02 | 71 | 1009.8 |
| 20260508185936 | 59 | 254 | 1.0 | 2.0 | 0.00 | 0.02 | 0.02 | 72 | 1010.0 |
| 20260508185434 | 59 | 238 | 2.0 | 3.0 | 0.00 | 0.02 | 0.02 | 71 | 1010.0 |
| 20260508184931 | 59 | 185 | 3.0 | 3.0 | 0.00 | 0.02 | 0.02 | 73 | 1010.1 |
| 20260508184429 | 58 | 97 | 0.0 | 0.0 | 0.00 | 0.02 | 0.02 | 72 | 1009.8 |
| 20260508183925 | 58 | 32 | 1.0 | 1.0 | 0.00 | 0.02 | 0.02 | 73 | 1010.0 |
| 20260508183422 | 58 | 101 | 0.0 | 0.0 | 0.00 | 0.02 | 0.02 | 73 | 1010.2 |
| 20260508182917 | 58 | 215 | 1.0 | 1.0 | 0.00 | 0.02 | 0.02 | 74 | 1010.3 |
| 20260508182415 | 58 | 124 | 1.0 | 1.0 | 0.00 | 0.02 | 0.02 | 76 | 1010.4 |
| 20260508181909 | 59 | 244 | 2.0 | 2.0 | 0.00 | 0.02 | 0.02 | 73 | 1010.4 |
| 20260508181407 | 59 | 87 | 0.0 | 0.0 | 0.00 | 0.02 | 0.02 | 73 | 1010.4 |
| 20260508180904 | 58 | 91 | 1.0 | 1.0 | 0.00 | 0.02 | 0.02 | 73 | 1010.5 |
| 20260508180401 | 58 | 318 | 2.0 | 2.0 | 0.00 | 0.02 | 0.02 | 75 | 1010.5 |
| 20260508175856 | 58 | 156 | 0.0 | 1.0 | 0.00 | 0.02 | 0.02 | 75 | 1010.8 |
| 20260508175353 | 57 | 200 | 2.0 | 2.0 | 0.00 | 0.02 | 0.02 | 75 | 1010.5 |
| 20260508174852 | 56 | 183 | 3.0 | 3.0 | 0.00 | 0.02 | 0.02 | 77 | 1010.6 |
| 20260508174349 | 56 | 201 | 3.0 | 3.0 | 0.00 | 0.02 | 0.02 | 80 | 1010.8 |
| 20260508173845 | 55 | 157 | 3.0 | 3.0 | 0.00 | 0.02 | 0.02 | 82 | 1011.1 |
| 20260508173342 | 55 | 280 | 1.0 | 2.0 | 0.00 | 0.02 | 0.02 | 81 | 1010.9 |
| 20260508172838 | 55 | 184 | 1.0 | 2.0 | 0.00 | 0.02 | 0.02 | 83 | 1011.1 |
| 20260508172335 | 55 | 192 | 2.0 | 2.0 | 0.00 | 0.02 | 0.02 | 84 | 1011.2 |
| 20260508171832 | 55 | 183 | 1.0 | 1.0 | 0.00 | 0.02 | 0.02 | 85 | 1011.3 |
| 20260508171328 | 55 | 127 | 1.0 | 1.0 | 0.00 | 0.02 | 0.02 | 85 | 1011.3 |
| 20260508170825 | 54 | 91 | 0.0 | 0.0 | 0.00 | 0.02 | 0.02 | 84 | 1011.4 |
| 20260508170323 | 54 | 112 | 0.0 | 1.0 | 0.00 | 0.02 | 0.02 | 84 | 1011.5 |
| 20260508165819 | 54 | 101 | 0.0 | 0.0 | 0.00 | 0.02 | 0.02 | 85 | 1011.7 |
| 20260508165317 | 53 | 208 | 1.0 | 1.0 | 0.00 | 0.02 | 0.02 | 85 | 1011.7 |
| 20260508164812 | 53 | 175 | 1.0 | 2.0 | 0.00 | 0.02 | 0.02 | 86 | 1011.8 |
| 20260508164309 | 53 | 233 | 1.0 | 2.0 | 0.07 | 0.02 | 0.02 | 85 | 1011.9 |
| 20260508163808 | 53 | 101 | 0.0 | 0.0 | 0.07 | 0.02 | 0.02 | 85 | 1012.1 |
| 20260508163305 | 53 | 273 | 1.0 | 2.0 | 0.05 | 0.01 | 0.01 | 84 | 1012.3 |
| 20260508162800 | 53 | 210 | 2.0 | 2.0 | 0.05 | 0.01 | 0.01 | 83 | 1012.3 |
| 20260508162257 | 53 | 222 | 3.0 | 3.0 | 0.00 | 0.00 | 0.00 | 83 | 1011.9 |
| 20260508161754 | 53 | 197 | 3.0 | 3.0 | 0.00 | 0.00 | 0.00 | 82 | 1012.0 |
| 20260508161251 | 53 | 203 | 7.0 | 9.0 | 0.00 | 0.00 | 0.00 | 82 | 1011.9 |
| 20260508160749 | 53 | 205 | 5.0 | 7.0 | 0.00 | 0.00 | 0.00 | 83 | 1011.9 |
| 20260508160248 | 53 | 211 | 3.0 | 5.0 | 0.00 | 0.00 | 0.00 | 85 | 1011.8 |
| 20260508155744 | 53 | 152 | 5.0 | 6.0 | 0.00 | 0.00 | 0.00 | 84 | 1012.0 |
| 20260508155241 | 52 | 225 | 2.0 | 2.0 | 0.00 | 0.00 | 0.00 | 86 | 1011.9 |
| 20260508154737 | 52 | 185 | 4.0 | 6.0 | 0.00 | 0.00 | 0.00 | 86 | 1011.9 |
| 20260508154235 | 52 | 238 | 4.0 | 5.0 | 0.00 | 0.00 | 0.00 | 85 | 1012.0 |
| 20260508153726 | 52 | 233 | 4.0 | 5.0 | 0.00 | 0.00 | 0.00 | 86 | 1012.1 |
| 20260508153223 | 51 | 170 | 3.0 | 3.0 | 0.00 | 0.00 | 0.00 | 85 | 1012.2 |
| 20260508152720 | 51 | 218 | 2.0 | 2.0 | 0.00 | 0.00 | 0.00 | 85 | 1012.0 |
| 20260508152215 | 52 | 197 | 3.0 | 3.0 | 0.00 | 0.00 | 0.00 | 86 | 1012.0 |
| 20260508151712 | 52 | 202 | 3.0 | 5.0 | 0.00 | 0.00 | 0.00 | 86 | 1012.1 |
| 20260508151209 | 51 | 164 | 3.0 | 3.0 | 0.00 | 0.00 | 0.00 | 86 | 1012.1 |
| 20260508150706 | 51 | 215 | 2.0 | 2.0 | 0.00 | 0.00 | 0.00 | 86 | 1012.3 |
| 20260508150203 | 51 | 199 | 2.0 | 2.0 | 0.00 | 0.00 | 0.00 | 87 | 1012.1 |
| 20260508145658 | 51 | 166 | 1.0 | 1.0 | 0.00 | 0.00 | 0.00 | 87 | 1012.1 |
| 20260508145154 | 51 | 194 | 3.0 | 3.0 | 0.00 | 0.00 | 0.00 | 86 | 1012.3 |
| 20260508144652 | 51 | 189 | 3.0 | 3.0 | 0.00 | 0.00 | 0.00 | 86 | 1012.3 |
| 20260508144150 | 51 | 260 | 5.0 | 6.0 | 0.00 | 0.00 | 0.00 | 85 | 1012.6 |
| 20260508143647 | 52 | 181 | 5.0 | 7.0 | 0.00 | 0.00 | 0.00 | 85 | 1012.6 |
| 20260508143144 | 52 | 234 | 4.0 | 6.0 | 0.00 | 0.00 | 0.00 | 84 | 1012.7 |
| 20260508142640 | 52 | 267 | 3.0 | 3.0 | 0.00 | 0.00 | 0.00 | 83 | 1012.8 |
| 20260508142137 | 52 | 225 | 4.0 | 6.0 | 0.00 | 0.00 | 0.00 | 83 | 1012.9 |
| 20260508141633 | 52 | 232 | 4.0 | 5.0 | 0.00 | 0.00 | 0.00 | 82 | 1012.9 |
| 20260508141131 | 52 | 268 | 4.0 | 5.0 | 0.00 | 0.00 | 0.00 | 82 | 1012.8 |
| 20260508140629 | 52 | 285 | 3.0 | 5.0 | 0.00 | 0.00 | 0.00 | 81 | 1012.6 |
| 20260508140125 | 53 | 248 | 3.0 | 3.0 | 0.00 | 0.00 | 0.00 | 81 | 1012.4 |
| 20260508135620 | 53 | 200 | 1.0 | 2.0 | 0.00 | 0.00 | 0.00 | 81 | 1012.2 |
| 20260508135117 | 52 | 227 | 2.0 | 3.0 | 0.00 | 0.00 | 0.00 | 80 | 1012.2 |
| 20260508134614 | 52 | 267 | 4.0 | 5.0 | 0.00 | 0.00 | 0.00 | 81 | 1012.3 |
| 20260508134111 | 52 | 340 | 1.0 | 2.0 | 0.00 | 0.00 | 0.00 | 80 | 1012.3 |
| 20260508133608 | 52 | 98 | 0.0 | 1.0 | 0.00 | 0.00 | 0.00 | 82 | 1012.6 |
| 20260508133105 | 52 | 196 | 3.0 | 3.0 | 0.00 | 0.00 | 0.00 | 80 | 1012.3 |
| 20260508132603 | 52 | 185 | 1.0 | 2.0 | 0.00 | 0.00 | 0.00 | 80 | 1012.7 |
| 20260508132059 | 51 | 242 | 1.0 | 2.0 | 0.00 | 0.00 | 0.00 | 82 | 1012.1 |
| 20260508131555 | 51 | 201 | 2.0 | 2.0 | 0.00 | 0.00 | 0.00 | 81 | 1012.0 |
| 20260508131052 | 51 | 192 | 2.0 | 2.0 | 0.00 | 0.00 | 0.00 | 81 | 1012.4 |
| 20260508130548 | 51 | 156 | 1.0 | 1.0 | 0.00 | 0.00 | 0.00 | 81 | 1012.4 |
| 20260508130045 | 51 | 266 | 1.0 | 1.0 | 0.00 | 0.00 | 0.00 | 81 | 1012.6 |
| 20260508125540 | 51 | 122 | 0.0 | 0.0 | 0.00 | 0.00 | 0.00 | 82 | 1012.6 |
| 20260508125039 | 50 | 130 | 0.0 | 0.0 | 0.00 | 0.00 | 0.00 | 81 | 1012.6 |
| 20260508124536 | 50 | 229 | 0.0 | 1.0 | 0.00 | 0.00 | 0.00 | 81 | 1012.3 |
| 20260508124033 | 50 | 295 | 0.0 | 0.0 | 0.00 | 0.00 | 0.00 | 82 | 1012.4 |
| 20260508123531 | 50 | 212 | 2.0 | 2.0 | 0.00 | 0.00 | 0.00 | 81 | 1012.3 |
| 20260508123028 | 50 | 7 | 1.0 | 1.0 | 0.00 | 0.00 | 0.00 | 81 | 1012.2 |
| 20260508122525 | 50 | 60 | 0.0 | 0.0 | 0.00 | 0.00 | 0.00 | 81 | 1012.2 |
| 20260508122022 | 50 | 256 | 1.0 | 1.0 | 0.00 | 0.00 | 0.00 | 81 | 1012.0 |
| 20260508121520 | 50 | 40 | 0.0 | 0.0 | 0.00 | 0.00 | 0.00 | 81 | 1012.0 |
| 20260508121018 | 50 | 149 | 0.0 | 1.0 | 0.00 | 0.00 | 0.00 | 81 | 1012.1 |
| 20260508120515 | 50 | 230 | 1.0 | 2.0 | 0.00 | 0.00 | 0.00 | 80 | 1012.2 |
| 20260508120013 | 50 | 61 | 0.0 | 0.0 | 0.00 | 0.00 | 0.00 | 81 | 1011.9 |
| 20260508115510 | 50 | 227 | 2.0 | 2.0 | 0.00 | 0.00 | 0.00 | 81 | 1012.2 |
| 20260508115007 | 50 | 127 | 0.0 | 1.0 | 0.00 | 0.00 | 0.00 | 81 | 1011.9 |
| 20260508114504 | 50 | 291 | 1.0 | 1.0 | 0.00 | 0.00 | 0.00 | 81 | 1011.8 |
| 20260508114000 | 49 | 280 | 1.0 | 1.0 | 0.00 | 0.00 | 0.00 | 81 | 1011.9 |
| 20260508113458 | 49 | 251 | 2.0 | 2.0 | 0.00 | 0.00 | 0.00 | 81 | 1011.9 |
| 20260508112955 | 49 | 306 | 3.0 | 3.0 | 0.00 | 0.00 | 0.00 | 81 | 1011.7 |
| 20260508112451 | 49 | 301 | 0.0 | 1.0 | 0.00 | 0.00 | 0.00 | 82 | 1011.9 |
| 20260508111948 | 49 | 263 | 0.0 | 1.0 | 0.00 | 0.00 | 0.00 | 82 | 1012.0 |
| 20260508111445 | 48 | 231 | 1.0 | 1.0 | 0.00 | 0.00 | 0.00 | 82 | 1011.7 |
| 20260508110942 | 48 | 238 | 3.0 | 3.0 | 0.00 | 0.00 | 0.00 | 82 | 1011.8 |
| 20260508110440 | 48 | 177 | 1.0 | 1.0 | 0.00 | 0.00 | 0.00 | 82 | 1011.6 |
| 20260508105939 | 48 | 199 | 2.0 | 2.0 | 0.00 | 0.00 | 0.00 | 82 | 1011.5 |
| 20260508105436 | 48 | 186 | 1.0 | 1.0 | 0.00 | 0.00 | 0.00 | 82 | 1011.5 |
| 20260508104933 | 47 | 145 | 1.0 | 1.0 | 0.00 | 0.00 | 0.00 | 83 | 1011.7 |
| 20260508104431 | 47 | 209 | 2.0 | 2.0 | 0.00 | 0.00 | 0.00 | 83 | 1011.5 |
| 20260508103927 | 47 | 192 | 0.0 | 1.0 | 0.00 | 0.00 | 0.00 | 84 | 1011.5 |
| 20260508103424 | 47 | 123 | 0.0 | 1.0 | 0.00 | 0.00 | 0.00 | 84 | 1011.3 |
| 20260508102921 | 47 | 206 | 3.0 | 3.0 | 0.00 | 0.00 | 0.00 | 84 | 1011.2 |
| 20260508102420 | 46 | 192 | 1.0 | 1.0 | 0.00 | 0.00 | 0.00 | 83 | 1011.5 |
| 20260508101916 | 46 | 193 | 2.0 | 2.0 | 0.00 | 0.00 | 0.00 | 84 | 1011.4 |
| 20260508101414 | 46 | 187 | 2.0 | 3.0 | 0.00 | 0.00 | 0.00 | 84 | 1011.5 |
| 20260508100911 | 46 | 181 | 2.0 | 2.0 | 0.00 | 0.00 | 0.00 | 83 | 1011.4 |
| 20260508100410 | 46 | 204 | 1.0 | 2.0 | 0.00 | 0.00 | 0.00 | 83 | 1011.5 |
| 20260508095905 | 46 | 290 | 3.0 | 3.0 | 0.00 | 0.00 | 0.00 | 84 | 1011.5 |
| 20260508095403 | 46 | 170 | 0.0 | 1.0 | 0.00 | 0.00 | 0.00 | 84 | 1011.7 |
| 20260508094900 | 46 | 113 | 0.0 | 0.0 | 0.00 | 0.00 | 0.00 | 84 | 1011.6 |
| 20260508094356 | 47 | 181 | 3.0 | 3.0 | 0.00 | 0.00 | 0.00 | 83 | 1011.7 |
| 20260508093853 | 46 | 209 | 3.0 | 3.0 | 0.00 | 0.00 | 0.00 | 84 | 1011.7 |
| 20260508093351 | 46 | 185 | 3.0 | 3.0 | 0.00 | 0.00 | 0.00 | 84 | 1011.5 |
| 20260508092848 | 46 | 194 | 3.0 | 3.0 | 0.00 | 0.00 | 0.00 | 84 | 1011.8 |
| 20260508092346 | 46 | 201 | 2.0 | 3.0 | 0.00 | 0.00 | 0.00 | 84 | 1011.6 |
| 20260508091844 | 46 | 140 | 0.0 | 0.0 | 0.00 | 0.00 | 0.00 | 84 | 1011.6 |
| 20260508091340 | 46 | 214 | 1.0 | 2.0 | 0.00 | 0.00 | 0.00 | 84 | 1011.8 |
| 20260508090838 | 46 | 226 | 2.0 | 2.0 | 0.00 | 0.00 | 0.00 | 83 | 1011.7 |
| 20260508090337 | 46 | 145 | 0.0 | 0.0 | 0.00 | 0.00 | 0.00 | 83 | 1011.7 |
| 20260508085832 | 46 | 222 | 1.0 | 2.0 | 0.00 | 0.00 | 0.00 | 84 | 1011.9 |
| 20260508085329 | 46 | 68 | 1.0 | 1.0 | 0.00 | 0.00 | 0.00 | 84 | 1011.6 |
| 20260508084825 | 46 | 205 | 2.0 | 3.0 | 0.00 | 0.00 | 0.00 | 84 | 1011.7 |
| 20260508084322 | 46 | 198 | 3.0 | 3.0 | 0.00 | 0.00 | 0.00 | 84 | 1012.0 |
| 20260508083820 | 46 | 168 | 0.0 | 1.0 | 0.00 | 0.00 | 0.00 | 85 | 1011.5 |
| 20260508083317 | 45 | 188 | 1.0 | 1.0 | 0.00 | 0.00 | 0.00 | 86 | 1011.8 |
| 20260508082817 | 46 | 189 | 1.0 | 2.0 | 0.00 | 0.00 | 0.00 | 85 | 1011.7 |
| 20260508082315 | 45 | 213 | 3.0 | 3.0 | 0.00 | 0.00 | 0.00 | 87 | 1011.9 |
| 20260508081812 | 45 | 141 | 0.0 | 0.0 | 0.00 | 0.00 | 0.00 | 87 | 1011.7 |
| 20260508081309 | 45 | 194 | 0.0 | 0.0 | 0.00 | 0.00 | 0.00 | 87 | 1011.8 |
| 20260508080806 | 45 | 183 | 0.0 | 0.0 | 0.00 | 0.00 | 0.00 | 87 | 1011.7 |
| 20260508080304 | 45 | 184 | 1.0 | 2.0 | 0.00 | 0.00 | 0.00 | 87 | 1011.7 |
| 20260508075800 | 44 | 191 | 2.0 | 2.0 | 0.00 | 0.00 | 0.00 | 88 | 1011.6 |
| 20260508075257 | 44 | 196 | 3.0 | 3.0 | 0.00 | 0.00 | 0.00 | 89 | 1011.7 |
| 20260508074755 | 44 | 189 | 4.0 | 5.0 | 0.00 | 0.00 | 0.00 | 89 | 1011.6 |
| 20260508074252 | 43 | 146 | 0.0 | 0.0 | 0.00 | 0.00 | 0.00 | 91 | 1011.7 |
| 20260508073749 | 44 | 150 | 0.0 | 0.0 | 0.00 | 0.00 | 0.00 | 91 | 1011.7 |
| 20260508073247 | 44 | 125 | 0.0 | 0.0 | 0.00 | 0.00 | 0.00 | 91 | 1011.7 |
| 20260508072742 | 44 | 119 | 0.0 | 0.0 | 0.00 | 0.00 | 0.00 | 91 | 1011.5 |
| 20260508072239 | 44 | 98 | 0.0 | 0.0 | 0.00 | 0.00 | 0.00 | 91 | 1011.6 |
| 20260508071737 | 44 | 108 | 0.0 | 0.0 | 0.00 | 0.00 | 0.00 | 91 | 1011.7 |
| 20260508071235 | 44 | 108 | 0.0 | 0.0 | 0.00 | 0.00 | 0.00 | 91 | 1011.8 |
| 20260508070732 | 44 | 106 | 0.0 | 0.0 | 0.00 | 0.00 | 0.00 | 91 | 1011.6 |
| 20260508070231 | 44 | 109 | 0.0 | 0.0 | 0.00 | 0.00 | 0.00 | 91 | 1011.8 |
| 20260508065727 | 44 | 112 | 0.0 | 0.0 | 0.00 | 0.00 | 0.00 | 90 | 1011.9 |
| 20260508065225 | 44 | 145 | 0.0 | 0.0 | 0.00 | 0.00 | 0.00 | 90 | 1012.0 |
| 20260508064723 | 44 | 166 | 0.0 | 0.0 | 0.00 | 0.00 | 0.00 | 91 | 1012.0 |
| 20260508064221 | 44 | 203 | 0.0 | 0.0 | 0.00 | 0.00 | 0.00 | 91 | 1012.2 |
| 20260508063718 | 44 | 130 | 0.0 | 0.0 | 0.00 | 0.00 | 0.00 | 92 | 1012.0 |
| 20260508063216 | 44 | 113 | 0.0 | 0.0 | 0.00 | 0.00 | 0.00 | 93 | 1012.2 |
| 20260508062713 | 44 | 152 | 0.0 | 0.0 | 0.00 | 0.00 | 0.00 | 93 | 1012.0 |
| 20260508062210 | 44 | 165 | 0.0 | 0.0 | 0.00 | 0.00 | 0.00 | 94 | 1012.1 |
| 20260508061707 | 44 | 185 | 0.0 | 0.0 | 0.00 | 0.00 | 0.00 | 94 | 1012.2 |
| 20260508061205 | 44 | 167 | 0.0 | 0.0 | 0.00 | 0.00 | 0.00 | 95 | 1012.0 |
| 20260508060702 | 44 | 171 | 0.0 | 0.0 | 0.00 | 0.00 | 0.00 | 95 | 1012.2 |
| 20260508060158 | 44 | 127 | 0.0 | 0.0 | 0.00 | 0.00 | 0.00 | 95 | 1012.4 |
| 20260508055654 | 44 | 103 | 0.0 | 0.0 | 0.00 | 0.00 | 0.00 | 95 | 1012.1 |
| 20260508055151 | 44 | 118 | 0.0 | 0.0 | 0.00 | 0.00 | 0.00 | 95 | 1012.3 |
| 20260508054647 | 44 | 100 | 0.0 | 0.0 | 0.00 | 0.00 | 0.00 | 95 | 1012.2 |
| 20260508054145 | 44 | 104 | 0.0 | 0.0 | 0.00 | 0.00 | 0.00 | 95 | 1012.4 |
| 20260508053642 | 44 | 92 | 0.0 | 0.0 | 0.00 | 0.00 | 0.00 | 95 | 1012.4 |
| 20260508053139 | 44 | 88 | 0.0 | 0.0 | 0.00 | 0.00 | 0.00 | 95 | 1012.6 |
| 20260508052637 | 44 | 87 | 0.0 | 0.0 | 0.00 | 0.00 | 0.00 | 95 | 1012.6 |
| 20260508052134 | 44 | 89 | 0.0 | 0.0 | 0.00 | 0.00 | 0.00 | 95 | 1012.7 |
| 20260508051630 | 44 | 89 | 0.0 | 0.0 | 0.00 | 0.00 | 0.00 | 95 | 1012.6 |
| 20260508051125 | 44 | 85 | 0.0 | 0.0 | 0.00 | 0.00 | 0.00 | 95 | 1012.3 |
| 20260508050621 | 43 | 71 | 0.0 | 0.0 | 0.00 | 0.00 | 0.00 | 95 | 1012.4 |
| 20260508050119 | 43 | 71 | 0.0 | 0.0 | 0.00 | 0.00 | 0.00 | 95 | 1012.6 |
| 20260508045615 | 43 | 71 | 0.0 | 0.0 | 0.00 | 0.00 | 0.00 | 95 | 1012.9 |
| 20260508045113 | 44 | 71 | 0.0 | 0.0 | 0.00 | 0.00 | 0.00 | 95 | 1012.6 |
| 20260508044610 | 44 | 71 | 0.0 | 0.0 | 0.00 | 0.00 | 0.00 | 95 | 1012.7 |
| 20260508044106 | 44 | 71 | 0.0 | 0.0 | 0.00 | 0.00 | 0.00 | 95 | 1012.6 |
| 20260508043603 | 44 | 69 | 0.0 | 0.0 | 0.00 | 0.00 | 0.00 | 95 | 1012.7 |
| 20260508043101 | 44 | 92 | 0.0 | 0.0 | 0.00 | 0.00 | 0.00 | 95 | 1012.7 |
| 20260508042557 | 44 | 92 | 0.0 | 0.0 | 0.00 | 0.00 | 0.00 | 94 | 1012.6 |
| 20260508042054 | 45 | 92 | 0.0 | 0.0 | 0.00 | 0.00 | 0.00 | 95 | 1012.7 |
| 20260508041550 | 45 | 93 | 0.0 | 0.0 | 0.00 | 0.00 | 0.00 | 94 | 1012.7 |
| 20260508041047 | 45 | 93 | 0.0 | 0.0 | 0.00 | 0.00 | 0.00 | 94 | 1012.7 |
| 20260508040544 | 46 | 92 | 0.0 | 0.0 | 0.00 | 0.00 | 0.00 | 94 | 1012.8 |
| 20260508040042 | 45 | 93 | 0.0 | 0.0 | 0.00 | 0.05 | 0.05 | 94 | 1012.3 |
| 20260508035538 | 45 | 84 | 0.0 | 0.0 | 0.00 | 0.05 | 0.05 | 93 | 1012.8 |
| 20260508035035 | 46 | 72 | 0.0 | 0.0 | 0.00 | 0.05 | 0.05 | 93 | 1012.8 |
| 20260508034532 | 46 | 87 | 0.0 | 0.0 | 0.00 | 0.05 | 0.05 | 93 | 1012.6 |
| 20260508034029 | 46 | 87 | 0.0 | 0.0 | 0.00 | 0.05 | 0.05 | 93 | 1012.7 |
| 20260508033527 | 46 | 87 | 0.0 | 0.0 | 0.00 | 0.05 | 0.05 | 93 | 1012.4 |
| 20260508033025 | 46 | 87 | 0.0 | 0.0 | 0.00 | 0.05 | 0.05 | 92 | 1012.9 |
| 20260508032521 | 46 | 88 | 0.0 | 0.0 | 0.00 | 0.05 | 0.05 | 92 | 1012.8 |
| 20260508032019 | 47 | 87 | 0.0 | 0.0 | 0.00 | 0.05 | 0.05 | 92 | 1012.9 |
| 20260508031516 | 47 | 87 | 0.0 | 0.0 | 0.00 | 0.05 | 0.05 | 91 | 1012.8 |
| 20260508031011 | 47 | 87 | 0.0 | 0.0 | 0.00 | 0.05 | 0.05 | 90 | 1013.1 |
| 20260508030509 | 47 | 70 | 0.0 | 0.0 | 0.00 | 0.05 | 0.05 | 88 | 1013.2 |
| 20260508030007 | 48 | 321 | 0.0 | 1.0 | 0.00 | 0.05 | 0.05 | 87 | 1013.4 |
| 20260508025502 | 48 | 158 | 0.0 | 0.0 | 0.00 | 0.05 | 0.05 | 87 | 1013.3 |
| 20260508024959 | 48 | 53 | 0.0 | 0.0 | 0.07 | 0.05 | 0.05 | 84 | 1013.2 |
| 20260508024455 | 48 | 5 | 1.0 | 1.0 | 0.19 | 0.05 | 0.05 | 84 | 1013.4 |
| 20260508023952 | 49 | 290 | 1.0 | 2.0 | 0.19 | 0.04 | 0.04 | 83 | 1013.5 |
| 20260508023449 | 49 | 349 | 1.0 | 1.0 | 0.12 | 0.02 | 0.02 | 81 | 1013.3 |
| 20260508022946 | 50 | 348 | 3.0 | 3.0 | 0.05 | 0.01 | 0.01 | 78 | 1013.2 |
| 20260508022442 | 50 | 347 | 2.0 | 2.0 | 0.00 | 0.00 | 0.00 | 75 | 1012.9 |
| 20260508021938 | 50 | 14 | 1.0 | 1.0 | 0.00 | 0.00 | 0.00 | 75 | 1012.4 |
| 20260508021435 | 50 | 342 | 1.0 | 1.0 | 0.00 | 0.00 | 0.00 | 74 | 1012.3 |
| 20260508020931 | 50 | 251 | 1.0 | 1.0 | 0.00 | 0.00 | 0.00 | 72 | 1012.6 |
| 20260508020429 | 50 | 206 | 2.0 | 2.0 | 0.00 | 0.00 | 0.00 | 71 | 1012.1 |
| 20260508015926 | 50 | 141 | 0.0 | 1.0 | 0.00 | 0.00 | 0.00 | 71 | 1012.2 |
| 20260508015424 | 50 | 127 | 0.0 | 1.0 | 0.00 | 0.00 | 0.00 | 71 | 1012.1 |
| 20260508014920 | 50 | 71 | 0.0 | 1.0 | 0.00 | 0.00 | 0.00 | 71 | 1012.0 |
| 20260508014417 | 50 | 94 | 0.0 | 0.0 | 0.00 | 0.00 | 0.00 | 72 | 1012.1 |
| 20260508013912 | 50 | 117 | 1.0 | 1.0 | 0.00 | 0.00 | 0.00 | 71 | 1012.2 |
| 20260508013408 | 50 | 157 | 2.0 | 2.0 | 0.00 | 0.00 | 0.00 | 71 | 1012.0 |
| 20260508012906 | 50 | 178 | 2.0 | 2.0 | 0.00 | 0.00 | 0.00 | 71 | 1011.9 |
| 20260508012403 | 50 | 199 | 5.0 | 6.0 | 0.00 | 0.00 | 0.00 | 70 | 1011.8 |
| 20260508011900 | 51 | 104 | 0.0 | 0.0 | 0.00 | 0.00 | 0.00 | 69 | 1011.9 |
| 20260508011359 | 51 | 185 | 4.0 | 5.0 | 0.00 | 0.00 | 0.00 | 69 | 1012.2 |
| 20260508010855 | 51 | 203 | 3.0 | 3.0 | 0.00 | 0.00 | 0.00 | 68 | 1011.9 |
| 20260508010353 | 51 | 232 | 3.0 | 3.0 | 0.00 | 0.00 | 0.00 | 67 | 1012.0 |
| 20260508005850 | 51 | 193 | 3.0 | 3.0 | 0.00 | 0.00 | 0.00 | 67 | 1012.0 |
| 20260508005346 | 51 | 195 | 4.0 | 5.0 | 0.00 | 0.00 | 0.00 | 66 | 1012.0 |
| 20260508004842 | 52 | 200 | 3.0 | 3.0 | 0.00 | 0.00 | 0.00 | 64 | 1012.0 |
| 20260508004339 | 52 | 225 | 5.0 | 6.0 | 0.00 | 0.00 | 0.00 | 62 | 1012.0 |
| 20260508003835 | 52 | 184 | 2.0 | 2.0 | 0.00 | 0.00 | 0.00 | 63 | 1011.8 |
| 20260508003332 | 52 | 182 | 3.0 | 3.0 | 0.00 | 0.00 | 0.00 | 62 | 1011.9 |
| 20260508002830 | 52 | 197 | 2.0 | 2.0 | 0.00 | 0.00 | 0.00 | 61 | 1011.9 |
| 20260508002326 | 52 | 181 | 3.0 | 5.0 | 0.00 | 0.00 | 0.00 | 60 | 1011.9 |
| 20260508001822 | 53 | 196 | 4.0 | 5.0 | 0.00 | 0.00 | 0.00 | 60 | 1012.2 |
| 20260508001319 | 53 | 192 | 3.0 | 3.0 | 0.00 | 0.00 | 0.00 | 59 | 1012.1 |
| 20260508000815 | 53 | 222 | 3.0 | 3.0 | 0.00 | 0.00 | 0.00 | 58 | 1012.4 |
| 20260508000312 | 53 | 213 | 3.0 | 3.0 | 0.00 | 0.00 | 0.00 | 56 | 1012.2 |
| 20260507235808 | 53 | 191 | 4.0 | 5.0 | 0.00 | 0.00 | 0.00 | 58 | 1012.1 |
| 20260507235307 | 53 | 188 | 0.0 | 1.0 | 0.00 | 0.00 | 0.00 | 59 | 1012.4 |
| 20260507234802 | 53 | 218 | 3.0 | 3.0 | 0.00 | 0.00 | 0.00 | 59 | 1011.9 |
| 20260507234259 | 53 | 207 | 3.0 | 3.0 | 0.00 | 0.00 | 0.00 | 60 | 1012.3 |
| 20260507233755 | 53 | 266 | 6.0 | 7.0 | 0.00 | 0.00 | 0.00 | 57 | 1012.3 |
| 20260507233253 | 53 | 185 | 5.0 | 6.0 | 0.00 | 0.00 | 0.00 | 57 | 1012.2 |
| 20260507232751 | 53 | 222 | 3.0 | 3.0 | 0.00 | 0.00 | 0.00 | 56 | 1012.6 |
| 20260507232247 | 53 | 209 | 3.0 | 3.0 | 0.00 | 0.00 | 0.00 | 55 | 1012.3 |
| 20260507231744 | 53 | 155 | 1.0 | 1.0 | 0.00 | 0.00 | 0.00 | 58 | 1012.3 |